Latest Weather Observations for Goulburn Airport

IDN60801

Issued at 4:33 am EST Saturday 2 July 2016 (issued every 30 minutes, with the page automatically refreshed every 10 minutes)

About weather observations | Map of weather stations | Latest weather observations for NSW | Other Formats
Station Details ID: 070330 Name: GOULBURN AIRPORT AWS Lat: -34.81 Lon: 149.73 Height: 640.0 m
Data from the previous 72 hours. | See also: Recent months at Goulburn Airport
Date/Time
EST
Temp
°C
App
Temp
°C
Dew
Point
°C
Rel
Hum
%
Delta-T
°C
Wind Press
QNH
hPa
Press
MSL
hPa
Rain since
9am
mm
Dir  Spd
km/h
Gust
km/h
Spd
kts
Gust
kts
02/04:30am 3.3 0.4 1.7 89 0.6 WNW 6 9 3 5 1023.3 1024.4 0.0
02/04:00am 4.3 0.6 2.5 88 0.8 WNW 11 17 6 9 1023.3 1024.4 0.0
02/03:30am 4.9 0.2 2.9 87 0.9 W 17 30 9 16 1023.4 1024.6 0.0
02/03:00am 5.1 0.0 3.3 88 0.8 W 19 32 10 17 1023.4 1024.6 0.0
02/02:30am 5.1 -0.1 3.3 88 0.8 W 20 26 11 14 1023.4 1024.6 0.0
02/02:00am 5.0 -0.6 3.2 88 0.8 W 22 30 12 16 1023.4 1024.6 0.0
02/01:30am 4.6 0.3 3.1 90 0.6 W 15 19 8 10 1023.5 1024.7 0.0
02/01:00am 2.8 -0.3 1.6 92 0.5 NNW 7 15 4 8 1023.4 1024.6 0.0
02/12:58am 2.6 -0.3 1.3 91 0.5 N 6 15 3 8 1023.4 1024.6 0.0
02/12:30am 2.9 -1.7 1.3 89 0.6 NW 15 19 8 10 1023.3 1024.4 0.0
02/12:00am 3.5 -2.8 1.7 88 0.7 WNW 24 30 13 16 1023.0 1024.2 0.0
 
Date/Time
EST
Temp
°C
App
Temp
°C
Dew
Point
°C
Rel
Hum
%
Delta-T
°C
Wind Press
QNH
hPa
Press
MSL
hPa
Rain since
9am
mm
Dir  Spd
km/h
Gust
km/h
Spd
kts
Gust
kts
01/11:30pm 3.7 -2.2 1.9 88 0.7 WNW 22 32 12 17 1023.0 1024.2 0.0
01/11:00pm 3.8 -1.4 2.2 89 0.7 WNW 19 24 10 13 1022.9 1024.1 0.0
01/10:30pm 4.0 -0.9 2.2 88 0.7 WNW 17 20 9 11 1022.9 1024.1 0.0
01/10:19pm 4.3 -0.9 2.3 87 0.8 WNW 19 28 10 15 1022.7 1023.9 0.0
01/10:00pm 4.4 -1.4 2.4 87 0.8 WNW 22 30 12 16 1022.6 1023.8 0.0
01/09:30pm 4.7 -1.4 2.6 86 0.9 WNW 24 30 13 16 1022.6 1023.8 0.0
01/09:00pm 4.9 -1.2 2.6 85 1.0 WNW 24 32 13 17 1022.3 1023.5 0.0
01/08:30pm 5.4 0.1 3.1 85 1.0 WNW 20 28 11 15 1022.3 1023.5 0.0
01/08:00pm 5.4 0.3 2.9 84 1.1 WNW 19 24 10 13 1022.1 1023.3 0.0
01/07:30pm 5.7 -0.7 3.0 83 1.2 WNW 26 37 14 20 1021.8 1022.9 0.0
01/07:00pm 5.5 -1.0 2.8 83 1.2 W 26 35 14 19 1021.3 1022.5 0.0
01/06:51pm 5.6 -1.2 2.9 83 1.2 W 28 37 15 20 1021.3 1022.5 0.0
01/06:30pm 5.2 -1.3 2.6 83 1.1 WNW 26 35 14 19 1020.9 1022.1 0.0
01/06:00pm 5.0 -1.2 2.4 83 1.1 WNW 24 30 13 16 1020.4 1021.5 0.0
01/05:30pm 4.9 -1.3 2.3 83 1.1 WNW 24 30 13 16 1019.7 1020.9 0.0
01/05:00pm 5.5 -1.5 2.2 79 1.4 W 28 35 15 19 1019.4 1020.6 0.0
01/04:30pm 6.5 -1.1 2.6 76 1.7 W 32 43 17 23 1018.8 1019.9 0.0
01/04:00pm 7.1 -1.1 2.8 74 1.9 WNW 35 46 19 25 1018.4 1019.5 0.0
01/03:30pm 7.8 0.0 3.1 72 2.1 WNW 33 44 18 24 1018.0 1019.2 0.0
01/03:00pm 8.2 0.1 3.1 70 2.3 WNW 35 46 19 25 1017.5 1018.6 0.0
01/02:30pm 8.4 0.6 3.1 69 2.3 W 33 44 18 24 1017.2 1018.3 0.0
01/02:00pm 8.4 0.2 2.6 67 2.5 WNW 35 44 19 24 1016.9 1018.0 0.0
01/01:30pm 8.6 0.5 3.2 69 2.4 W 35 46 19 25 1016.8 1017.9 0.0
01/01:00pm 8.4 0.7 3.3 70 2.3 W 33 44 18 24 1016.6 1017.6 0.0
01/12:30pm 8.1 0.1 3.8 74 1.9 W 35 44 19 24 1016.7 1017.7 0.0
01/12:00pm 7.9 -0.2 3.4 73 2.0 W 35 44 19 24 1016.6 1017.6 0.0
01/11:48am 7.7 -0.7 3.6 75 1.8 W 37 46 20 25 1016.4 1017.5 0.0
01/11:30am 7.0 -0.7 3.4 78 1.6 W 33 44 18 24 1016.8 1017.9 0.0
01/11:00am 6.8 -0.7 3.4 79 1.5 W 32 39 17 21 1017.0 1018.1 0.0
01/10:30am 5.7 -1.8 3.5 86 1.0 W 32 39 17 21 1016.7 1017.7 0.0
01/10:00am 5.4 -2.2 3.7 89 0.7 WNW 33 44 18 24 1016.2 1017.3 0.0
01/09:30am 4.7 -1.6 3.5 92 0.5 WNW 26 37 14 20 1016.0 1016.8 0.0
01/09:00am 4.5 -1.8 3.5 93 0.4 WNW 26 39 14 21 1015.8 1016.6 2.0
01/08:30am 4.0 -1.2 2.5 90 0.6 NW 19 26 10 14 1015.1 1015.9 2.0
01/08:00am 3.9 -1.9 2.4 90 0.6 WNW 22 28 12 15 1015.2 1016.0 2.0
01/07:30am 3.8 -1.1 2.3 90 0.6 WNW 17 22 9 12 1014.9 1015.6 2.0
01/07:00am 3.7 -0.8 2.2 90 0.6 NW 15 22 8 12 1014.1 1014.9 2.0
01/06:30am 3.6 -1.7 2.0 89 0.7 WNW 19 26 10 14 1013.8 1014.6 2.0
01/06:00am 3.6 -3.0 2.0 89 0.7 WNW 26 35 14 19 1013.5 1014.2 2.0
01/05:30am 3.4 -2.0 2.2 92 0.5 W 20 30 11 16 1013.6 1014.3 2.0
01/05:00am 3.3 -2.2 2.0 91 0.5 WNW 20 26 11 14 1013.3 1014.0 2.0
01/04:30am 3.4 -2.5 1.4 87 0.8 WNW 22 30 12 16 1012.9 1013.7 2.0
01/04:00am 3.0 -3.3 1.5 90 0.6 NW 24 35 13 19 1012.7 1013.5 2.0
01/03:30am 2.7 -4.4 1.4 91 0.5 WNW 28 39 15 21 1012.4 1013.2 2.0
01/03:04am 2.2 -4.6 1.0 92 0.5 NW 26 33 14 18 1012.6 1013.4 2.0
01/03:00am 1.9 -4.9 0.7 92 0.5 NW 26 32 14 17 1012.6 1013.4 2.0
01/02:30am 1.7 -5.5 0.5 92 0.5 WNW 28 35 15 19 1012.6 1013.4 2.0
01/02:00am 2.2 -4.9 1.2 93 0.4 NW 28 35 15 19 1012.2 1012.9 2.0
01/01:30am 2.7 -5.1 1.4 91 0.5 WNW 32 41 17 22 1012.9 1013.7 1.2
01/01:10am 3.6 -5.9 2.0 89 0.7 W 41 59 22 32 1012.7 1013.5 1.2
01/01:00am 4.0 -6.4 2.0 87 0.8 W 46 61 25 33 1012.4 1013.2 0.8
01/12:52am 4.4 -8.1 2.3 86 0.9 WNW 57 74 31 40 1012.3 1013.0 0.6
01/12:35am 6.4 -4.0 4.1 85 1.0 NW 48 67 26 36 1011.3 1012.1 0.4
01/12:30am 6.3 -4.1 4.0 85 1.0 NW 48 61 26 33 1011.3 1012.1 0.2
01/12:00am 7.0 -4.0 3.1 76 1.7 NW 50 70 27 38 1010.8 1011.5 0.0
 
Date/Time
EST
Temp
°C
App
Temp
°C
Dew
Point
°C
Rel
Hum
%
Delta-T
°C
Wind Press
QNH
hPa
Press
MSL
hPa
Rain since
9am
mm
Dir  Spd
km/h
Gust
km/h
Spd
kts
Gust
kts
30/11:35pm 6.9 -2.8 3.0 76 1.7 NW 43 63 23 34 1010.8 1011.5 0.0
30/11:30pm 6.8 -2.9 2.9 76 1.7 NW 43 56 23 30 1011.0 1011.7 0.0
30/11:00pm 6.4 -1.8 2.9 78 1.5 NW 35 48 19 26 1011.8 1012.5 0.0
30/10:30pm 6.6 -1.0 2.9 77 1.6 NW 32 44 17 24 1012.2 1012.9 0.0
30/10:00pm 5.9 -0.2 2.5 79 1.5 NW 24 35 13 19 1012.6 1013.4 0.0
30/09:30pm 5.7 0.5 2.4 79 1.4 NNW 19 28 10 15 1012.7 1013.5 0.0
30/09:00pm 5.9 0.1 2.4 78 1.5 NW 22 32 12 17 1013.4 1014.1 0.0
30/08:30pm 5.8 0.9 2.1 77 1.6 NW 17 22 9 12 1013.6 1014.3 0.0
30/08:00pm 5.4 0.1 1.9 78 1.5 NW 19 32 10 17 1013.9 1014.7 0.0
30/07:30pm 5.7 -0.9 2.2 78 1.5 NW 26 37 14 20 1013.7 1014.5 0.0
30/07:00pm 4.7 -0.8 1.6 80 1.3 NW 20 28 11 15 1013.8 1014.6 0.0
30/06:30pm 4.7 -1.3 1.2 78 1.4 NW 22 30 12 16 1014.0 1014.8 0.0
30/06:00pm 5.2 -1.2 1.0 74 1.7 NW 24 30 13 16 1013.9 1014.7 0.0
30/05:30pm 5.6 -1.5 1.2 73 1.8 NW 28 39 15 21 1013.6 1014.3 0.0
30/05:00pm 6.0 -1.9 0.8 69 2.1 NW 32 41 17 22 1013.5 1014.2 0.0
30/04:30pm 6.7 0.4 1.6 70 2.1 NW 24 32 13 17 1014.1 1014.9 0.0
30/04:00pm 7.0 0.3 1.3 67 2.4 WNW 26 37 14 20 1014.3 1015.1 0.0
30/03:30pm 6.8 -0.2 1.7 70 2.2 NW 28 35 15 19 1014.6 1015.4 0.0
30/03:00pm 6.7 -0.3 1.8 71 2.1 NW 28 43 15 23 1015.1 1015.9 0.0
30/02:30pm 6.3 -0.4 1.4 71 2.0 NW 26 35 14 19 1015.6 1016.4 0.0
30/02:00pm 6.2 -1.3 1.1 70 2.1 NW 30 41 16 22 1016.0 1016.8 0.0
30/01:46pm 6.4 -1.7 1.1 69 2.2 NW 33 52 18 28 1016.0 1016.8 0.0
30/01:30pm 6.2 -2.7 0.9 69 2.2 NW 37 50 20 27 1016.2 1017.0 0.0
30/01:16pm 6.2 -3.1 0.5 67 2.3 NW 39 57 21 31 1016.4 1017.3 0.0
30/01:00pm 6.6 -2.2 1.3 69 2.2 NW 37 54 20 29 1017.0 1017.8 0.0
30/12:30pm 6.5 -2.0 1.0 68 2.3 NW 35 50 19 27 1017.5 1018.3 0.0
30/12:00pm 6.5 -3.5 1.0 68 2.3 NW 43 54 23 29 1018.1 1019.0 0.0
30/11:30am 8.3 -1.1 2.1 65 2.7 WNW 41 56 22 30 1018.9 1019.7 0.0
30/11:23am 8.3 0.1 2.5 67 2.5 WNW 35 56 19 30 1019.1 1020.0 0.0
30/11:00am 8.1 -0.6 1.9 65 2.7 NW 37 54 20 29 1019.5 1020.4 0.0
30/10:30am 7.8 -0.9 2.3 68 2.4 WNW 37 48 20 26 1019.9 1020.7 0.0
30/10:00am 7.3 0.3 2.2 70 2.2 WNW 28 41 15 22 1019.9 1020.7 0.0
30/09:30am 5.9 0.5 2.5 79 1.4 WNW 20 24 11 13 1020.4 1021.3 0.0
30/09:00am 1.5 -0.3 1.2 98 0.1 CALM 0 7 0 4 1020.4 1021.3 0.0
30/08:30am -1.2 -3.4 -1.8 96 0.2 CALM 0 0 0 0 1020.3 1021.1 0.0
30/08:00am -2.9 -5.3 -3.3 97 0.0 CALM 0 0 0 0 1020.2 1021.0 0.0
30/07:30am -4.8 -7.5 -5.5 95 0.0 CALM 0 0 0 0 1020.1 1020.9 0.0
30/07:00am -5.0 -7.7 -5.7 95 0.0 CALM 0 0 0 0 1020.1 1020.9 0.0
30/06:30am -5.1 -7.8 -5.9 94 0.0 CALM 0 0 0 0 1020.0 1020.8 0.0
30/06:00am -4.7 -7.3 -5.4 95 0.0 CALM 0 0 0 0 1020.0 1020.8 0.0
30/05:47am -4.7 -7.4 -5.5 94 0.1 CALM 0 0 0 0 1020.2 1021.0 0.0
30/05:30am -4.5 -7.1 -5.3 94 0.1 CALM 0 0 0 0 1020.3 1021.1 0.0
30/05:00am -4.3 -6.9 -5.1 94 0.1 CALM 0 0 0 0 1020.4 1021.3 0.0
30/04:30am -3.8 -6.4 -4.5 95 0.1 CALM 0 0 0 0 1020.6 1021.5 0.0
30/04:00am -3.7 -6.2 -4.2 96 0.0 CALM 0 0 0 0 1020.9 1021.8 0.0
30/03:30am -3.6 -6.1 -4.3 95 0.1 CALM 0 0 0 0 1021.1 1022.0 0.0
30/03:00am -3.3 -5.8 -4.0 95 0.1 CALM 0 0 0 0 1021.4 1022.3 0.0
30/02:30am -3.3 -5.8 -4.0 95 0.1 CALM 0 0 0 0 1021.9 1022.8 0.0
30/02:00am -2.7 -5.1 -3.2 96 0.0 CALM 0 0 0 0 1022.2 1023.1 0.0
30/01:30am -2.5 -4.9 -3.0 96 0.1 CALM 0 0 0 0 1022.5 1023.4 0.0
30/01:00am -2.5 -4.9 -3.0 96 0.1 CALM 0 0 0 0 1022.6 1023.5 0.0
30/12:30am -1.6 -3.9 -2.2 96 0.1 CALM 0 0 0 0 1023.0 1024.0 0.0
30/12:29am -1.7 -4.0 -2.3 96 0.1 CALM 0 0 0 0 1023.0 1024.0 0.0
30/12:00am -1.8 -4.1 -2.4 96 0.1 CALM 0 0 0 0 1023.4 1024.3 0.0
 
Date/Time
EST
Temp
°C
App
Temp
°C
Dew
Point
°C
Rel
Hum
%
Delta-T
°C
Wind Press
QNH
hPa
Press
MSL
hPa
Rain since
9am
mm
Dir  Spd
km/h
Gust
km/h
Spd
kts
Gust
kts
29/11:30pm -0.9 -3.1 -1.5 96 0.2 CALM 0 0 0 0 1023.9 1024.8 0.0
29/11:00pm -0.4 -2.5 -1.0 96 0.2 CALM 0 0 0 0 1024.1 1025.0 0.0
29/10:30pm -0.6 -2.8 -1.3 95 0.2 CALM 0 0 0 0 1024.3 1025.3 0.0
29/10:00pm -0.2 -2.3 -0.8 96 0.2 CALM 0 0 0 0 1024.7 1025.7 0.0
29/09:30pm 0.4 -1.6 -0.3 95 0.3 CALM 0 0 0 0 1024.6 1025.6 0.0
29/09:00pm 0.6 -1.4 -0.4 93 0.4 CALM 0 0 0 0 1025.1 1026.0 0.0
29/08:30pm 1.7 -1.3 0.5 92 0.5 ENE 6 6 3 3 1025.4 1026.3 0.0
29/08:00pm 2.1 0.2 0.6 90 0.6 CALM 0 6 0 3 1025.5 1026.4 0.0
29/07:30pm 3.9 1.2 2.7 92 0.5 NW 6 9 3 5 1025.4 1026.3 0.0
29/07:00pm 2.1 0.1 0.0 86 0.8 CALM 0 0 0 0 1025.4 1026.3 0.0
29/06:30pm 4.1 2.4 2.0 86 0.9 CALM 0 0 0 0 1025.3 1026.2 0.0
29/06:00pm 4.6 2.2 2.3 85 1.0 ESE 4 6 2 3 1025.1 1026.0 0.0
29/05:30pm 4.8 3.0 1.1 77 1.5 CALM 0 0 0 0 1025.1 1026.0 0.0
29/05:00pm 8.4 6.8 2.6 67 2.5 CALM 0 0 0 0 1025.1 1026.0 0.0
29/04:30pm 11.9 10.3 2.6 53 4.2 CALM 0 0 0 0 1025.2 1026.1 0.0
29/04:00pm 12.6 10.7 3.0 52 4.4 S 2 7 1 4 1025.3 1026.2 0.0
29/03:30pm 12.3 9.6 2.7 52 4.4 SSW 6 7 3 4 1025.3 1026.2 0.0
29/03:00pm 11.9 9.2 2.4 52 4.2 S 6 7 3 4 1025.3 1026.2 0.0
29/02:30pm 12.4 10.2 3.6 55 4.1 ESE 4 7 2 4 1025.4 1026.3 0.0
29/02:00pm 11.8 9.2 3.1 55 3.9 S 6 9 3 5 1025.4 1026.3 0.0
29/01:30pm 11.2 8.3 2.5 55 3.9 S 7 9 4 5 1025.7 1026.7 0.0
29/01:00pm 10.9 8.3 3.2 59 3.5 WNW 6 11 3 6 1026.0 1027.0 0.0
29/12:30pm 9.6 6.7 2.5 61 3.1 WNW 7 11 4 6 1026.6 1027.5 0.0
29/12:00pm 8.7 6.0 3.5 70 2.3 WNW 7 11 4 6 1027.2 1028.2 0.0
29/11:30am 7.2 4.0 3.3 76 1.7 NNW 9 13 5 7 1027.6 1028.6 0.0
29/11:00am 6.0 2.8 3.2 82 1.2 NW 9 13 5 7 1028.3 1029.3 0.0
29/10:39am 4.9 1.3 2.9 87 0.9 WNW 11 15 6 8 1028.5 1029.5 0.0
29/10:30am 4.4 0.7 2.4 87 0.8 WNW 11 15 6 8 1028.5 1029.5 0.0
29/10:00am 3.3 -0.3 3.2 99 0.0 NW 11 15 6 8 1028.8 1029.8 0.0
29/09:30am 2.1 -2.4 2.0 99 0.0 NW 15 19 8 10 1029.0 1030.0 0.0
29/09:00am 1.5 -2.4 1.4 99 0.0 NW 11 17 6 9 1028.7 1029.7 0.0
29/08:30am 1.6 -2.2 1.5 99 0.0 NNW 11 15 6 8 1028.5 1029.5 0.0
29/08:00am 1.0 -2.6 0.7 98 0.1 N 9 11 5 6 1028.4 1029.4 0.0
29/07:30am 0.6 -2.7 0.2 97 0.2 N 7 9 4 5 1028.1 1029.1 0.0
29/07:00am 0.4 -3.3 0.0 97 0.1 NNW 9 13 5 7 1028.0 1029.0 0.0
29/06:30am 0.6 -3.5 -0.1 95 0.3 NNW 11 13 6 7 1027.9 1028.9 0.0
29/06:00am 2.1 -1.0 1.5 96 0.2 NNW 7 13 4 7 1027.5 1028.5 0.0
29/05:30am 3.0 -1.1 2.4 96 0.2 WNW 13 19 7 10 1027.3 1028.3 0.0
29/05:00am 3.0 -0.7 2.3 95 0.3 NW 11 15 6 8 1027.2 1028.2 0.0

Other Formats:

Comma delimited format used in spreadsheet applications
http://www.bom.gov.au/fwo/IDN60801/IDN60801.95716.axf

JavaScript Object Notation format (JSON) in row-major order
http://www.bom.gov.au/fwo/IDN60801/IDN60801.95716.json